Time;durP1;ratioP1;P1;durP2;ratioP2;P2;SDS_P1;SDS_P2;PMS_P1;PMS_P2;Temp;Humidity;BMP_temperature;BMP_pressure;BME280_temperature;BME280_humidity;BME280_pressure;Samples;Min_cycle;Max_cycle;Signal;HPM_P1;HPM_P2
2022/04/10 00:09:24;;;;;;;;;;;;;;;22.54;46.69;99732.38;20774509;27;98451;-78
2022/04/10 00:19:25;;;;;;;;;;;;;;;22.49;46.69;99730.16;20746922;27;97704;-78
2022/04/10 00:29:25;;;;;;;;;;;;;;;22.45;47.01;99730.59;20750356;27;97024;-78
2022/04/10 00:39:26;;;;;;;;;;;;;;;22.37;46.74;99712.81;20740672;27;100876;-79
2022/04/10 00:49:27;;;;;;;;;;;;;;;22.26;46.87;99719.09;20759395;27;96921;-79
2022/04/10 00:59:29;;;;;;;;;;;;;;;22.18;46.63;99730.34;20747560;27;98864;-78
2022/04/10 01:09:29;;;;;;;;;;;;;;;22.13;46.92;99764.22;20753478;27;100620;-79
2022/04/10 01:19:30;;;;;;;;;;;;;;;22.11;46.69;99760.06;20762012;27;97581;-79
2022/04/10 01:29:30;;;;;;;;;;;;;;;22.07;46.63;99781.44;20754423;27;98690;-78
2022/04/10 01:39:31;;;;;;;;;;;;;;;22.06;46.75;99789.47;20775760;27;98070;-78
2022/04/10 01:49:31;;;;;;;;;;;;;;;22.02;46.69;99796.00;20762368;27;96920;-79
2022/04/10 01:59:32;;;;;;;;;;;;;;;22.08;46.77;99811.25;20759146;27;98677;-80
2022/04/10 02:09:32;;;;;;;;;;;;;;;22.08;46.72;99811.25;20764631;27;97064;-80
2022/04/10 02:19:37;;;;;;;;;;;;;;;22.04;46.74;99813.34;20763934;27;106424;-79
2022/04/10 02:29:37;;;;;;;;;;;;;;;22.02;46.55;99831.09;20762635;27;97162;-79
2022/04/10 02:39:37;;;;;;;;;;;;;;;21.98;46.57;99839.44;20771782;27;96983;-79
2022/04/10 02:49:39;;;;;;;;;;;;;;;21.97;46.49;99848.31;20764585;27;97581;-78
2022/04/10 02:59:39;;;;;;;;;;;;;;;21.85;46.59;99853.69;20748519;27;101948;-79
2022/04/10 03:09:39;;;;;;;;;;;;;;;21.97;46.72;99864.97;20752180;27;100659;-79
2022/04/10 03:19:40;;;;;;;;;;;;;;;21.99;46.57;99875.38;20749450;27;97839;-79
2022/04/10 03:29:40;;;;;;;;;;;;;;;22.01;46.32;99883.97;20753336;27;97813;-78
2022/04/10 03:39:41;;;;;;;;;;;;;;;21.91;46.23;99899.78;20743502;27;97508;-78
2022/04/10 03:49:41;;;;;;;;;;;;;;;21.84;46.31;99910.00;20747871;27;97876;-78
2022/04/10 03:59:42;;;;;;;;;;;;;;;21.91;46.38;99910.31;20743193;27;97534;-78
2022/04/10 04:09:42;;;;;;;;;;;;;;;21.92;46.24;99917.25;20736822;27;98450;-77
2022/04/10 04:19:43;;;;;;;;;;;;;;;21.90;45.75;99932.38;20732024;27;98653;-78
2022/04/10 04:29:43;;;;;;;;;;;;;;;21.92;45.36;99948.88;20743761;27;99079;-78
2022/04/10 04:39:44;;;;;;;;;;;;;;;21.94;45.97;99952.22;20747820;27;97320;-79
2022/04/10 04:49:44;;;;;;;;;;;;;;;22.01;45.28;99960.44;20758245;27;97628;-78
2022/04/10 04:59:45;;;;;;;;;;;;;;;21.98;45.38;99971.22;20756763;27;98178;-79
2022/04/10 05:09:45;;;;;;;;;;;;;;;22.04;45.28;99987.34;20728468;27;97263;-79
2022/04/10 05:19:46;;;;;;;;;;;;;;;22.07;44.54;99999.44;20739166;27;98031;-78
2022/04/10 05:29:46;;;;;;;;;;;;;;;22.12;44.83;100001.66;20728863;27;97212;-78
2022/04/10 05:39:46;;;;;;;;;;;;;;;22.11;44.50;100016.66;20737769;27;97134;-77
2022/04/10 05:49:47;;;;;;;;;;;;;;;22.14;44.86;100018.19;20751366;27;97357;-78
2022/04/10 05:59:49;;;;;;;;;;;;;;;22.19;45.73;100027.38;20736668;27;97057;-76
2022/04/10 06:09:50;;;;;;;;;;;;;;;22.26;46.05;100040.03;20736989;27;98724;-76
2022/04/10 06:19:50;;;;;;;;;;;;;;;22.30;45.96;100031.72;20744383;27;98175;-76
2022/04/10 06:29:51;;;;;;;;;;;;;;;22.33;45.98;100044.63;20738476;27;99901;-75
2022/04/10 06:39:51;;;;;;;;;;;;;;;22.42;46.20;100061.47;20760295;27;97744;-78
2022/04/10 06:49:53;;;;;;;;;;;;;;;22.50;46.60;100068.72;20759641;27;98337;-77
2022/04/10 06:59:54;;;;;;;;;;;;;;;22.58;46.60;100086.50;20755980;27;102056;-77
2022/04/10 07:09:54;;;;;;;;;;;;;;;22.57;46.34;100090.97;20750909;27;99842;-77
2022/04/10 07:19:55;;;;;;;;;;;;;;;22.60;45.93;100095.13;20750095;27;100602;-76
2022/04/10 07:29:55;;;;;;;;;;;;;;;22.59;46.27;100107.47;20742212;27;97724;-78
2022/04/10 07:39:56;;;;;;;;;;;;;;;22.60;45.50;100098.59;20730199;27;97194;-77
2022/04/10 07:49:56;;;;;;;;;;;;;;;22.61;45.12;100112.63;20725015;27;97043;-75
2022/04/10 07:59:57;;;;;;;;;;;;;;;22.60;45.85;100124.16;20742446;27;98678;-75
2022/04/10 08:09:57;;;;;;;;;;;;;;;22.66;46.28;100123.63;20716476;27;101169;-74
2022/04/10 08:19:58;;;;;;;;;;;;;;;22.70;45.84;100130.28;20726894;27;98300;-74
2022/04/10 08:29:58;;;;;;;;;;;;;;;22.61;42.07;100136.38;20723305;27;97677;-79
2022/04/10 08:39:59;;;;;;;;;;;;;;;22.49;38.32;100138.28;20747106;27;98386;-75
2022/04/10 08:50:00;;;;;;;;;;;;;;;22.33;36.28;100139.56;20730593;27;97576;-75
2022/04/10 09:00:00;;;;;;;;;;;;;;;21.94;33.25;100149.09;20722627;27;98384;-81
2022/04/10 09:10:01;;;;;;;;;;;;;;;22.00;33.56;100141.50;20722720;27;97205;-76
2022/04/10 09:20:01;;;;;;;;;;;;;;;22.05;35.39;100135.84;20725447;27;97131;-77
2022/04/10 09:30:03;;;;;;;;;;;;;;;22.15;37.38;100135.88;20731206;27;98863;-76
2022/04/10 09:40:22;;;;;;;;;;;;;;;22.29;39.01;100132.91;20743903;27;97243;-77
2022/04/10 09:50:31;;;;;;;;;;;;;;;22.32;39.31;100152.91;20748642;27;97899;-79
2022/04/10 10:00:34;;;;;;;;;;;;;;;22.12;36.51;100141.41;20770505;27;98970;-79
2022/04/10 10:10:36;;;;;;;;;;;;;;;22.20;37.02;100141.59;20753246;27;102565;-77
2022/04/10 10:20:38;;;;;;;;;;;;;;;22.32;37.54;100142.34;20757178;27;98405;-77
2022/04/10 10:30:57;;;;;;;;;;;;;;;22.43;38.21;100149.38;20766291;27;97211;-74
2022/04/10 10:41:09;;;;;;;;;;;;;;;22.53;39.26;100144.94;20744067;27;97993;-76
2022/04/10 10:51:10;;;;;;;;;;;;;;;22.61;39.86;100153.03;20763866;27;99895;-76
2022/04/10 11:01:23;;;;;;;;;;;;;;;22.70;40.04;100138.19;20762312;27;97193;-75
2022/04/10 11:11:34;;;;;;;;;;;;;;;22.76;40.37;100142.94;20742993;27;97491;-75
2022/04/10 11:21:43;;;;;;;;;;;;;;;22.41;31.66;100133.69;20735433;27;99248;-77
2022/04/10 11:31:48;;;;;;;;;;;;;;;21.89;30.65;100136.31;20739472;27;101729;-77
2022/04/10 11:41:48;;;;;;;;;;;;;;;22.27;34.10;100137.47;20721322;27;98706;-77
2022/04/10 11:51:50;;;;;;;;;;;;;;;22.61;37.40;100131.09;20734406;27;99024;-76
2022/04/10 12:01:51;;;;;;;;;;;;;;;22.86;39.00;100127.13;20725724;27;101062;-78
2022/04/10 12:11:56;;;;;;;;;;;;;;;23.10;43.00;100144.41;20741809;27;97385;-78
2022/04/10 12:21:56;;;;;;;;;;;;;;;23.31;44.19;100139.00;20741084;27;97112;-78
2022/04/10 12:31:58;;;;;;;;;;;;;;;23.25;34.32;100145.69;20743358;27;98050;-78
2022/04/10 12:42:03;;;;;;;;;;;;;;;23.38;39.34;100147.22;20748371;27;98692;-77
2022/04/10 12:52:05;;;;;;;;;;;;;;;23.45;36.07;100137.78;20738971;27;98672;-77
2022/04/10 13:02:35;;;;;;;;;;;;;;;22.54;24.83;100123.72;20752326;27;101160;-79
2022/04/10 13:12:39;;;;;;;;;;;;;;;22.84;25.31;100134.34;20727913;27;101023;-76
2022/04/10 13:22:43;;;;;;;;;;;;;;;23.10;28.67;100142.59;20738927;27;98023;-78
2022/04/10 13:32:43;;;;;;;;;;;;;;;23.22;29.44;100155.69;20798411;27;97245;-80
2022/04/10 13:42:44;;;;;;;;;;;;;;;23.30;30.09;100155.84;20799417;27;98317;-79
2022/04/10 13:52:45;;;;;;;;;;;;;;;23.15;28.99;100177.34;20789627;27;98166;-79
2022/04/10 14:02:46;;;;;;;;;;;;;;;23.27;31.78;100183.38;20785872;27;97400;-81
2022/04/10 14:12:47;;;;;;;;;;;;;;;23.38;32.46;100173.66;20764135;27;100575;-78
2022/04/10 14:22:47;;;;;;;;;;;;;;;23.22;28.98;100177.66;20761398;27;97582;-77
2022/04/10 14:32:47;;;;;;;;;;;;;;;23.14;29.65;100196.81;20756422;27;97306;-77
2022/04/10 14:42:48;;;;;;;;;;;;;;;23.14;28.11;100210.03;20742273;27;97172;-75
2022/04/10 14:52:49;;;;;;;;;;;;;;;23.45;28.74;100217.06;20752018;27;98323;-77
2022/04/10 15:02:49;;;;;;;;;;;;;;;23.80;27.00;100213.84;20736982;27;102435;-78
2022/04/10 15:12:51;;;;;;;;;;;;;;;24.07;25.65;100225.53;20740735;27;98565;-77
2022/04/10 15:22:52;;;;;;;;;;;;;;;24.54;24.88;100221.22;20762967;27;98713;-79
2022/04/10 15:32:53;;;;;;;;;;;;;;;24.69;23.45;100225.09;20765631;27;97042;-78
2022/04/10 15:42:56;;;;;;;;;;;;;;;24.67;22.47;100227.06;20754595;27;100847;-78
2022/04/10 15:52:56;;;;;;;;;;;;;;;24.63;22.55;100233.56;20740071;27;99719;-77
2022/04/10 16:02:57;;;;;;;;;;;;;;;24.80;23.23;100237.31;20731257;27;97433;-75
2022/04/10 16:12:57;;;;;;;;;;;;;;;24.62;23.18;100253.94;20748288;27;97703;-78
2022/04/10 16:22:59;;;;;;;;;;;;;;;24.44;23.83;100261.78;20733757;27;99015;-77
2022/04/10 16:33:04;;;;;;;;;;;;;;;24.19;24.05;100265.88;20731895;27;98049;-77
2022/04/10 16:43:05;;;;;;;;;;;;;;;23.75;23.85;100268.94;20737340;27;100127;-77
2022/04/10 16:53:11;;;;;;;;;;;;;;;23.92;26.59;100272.72;20749939;27;98446;-76
2022/04/10 17:03:13;;;;;;;;;;;;;;;23.82;29.50;100285.09;20727446;27;98691;-79
2022/04/10 17:13:13;;;;;;;;;;;;;;;23.71;30.13;100290.50;20743635;27;97557;-76
2022/04/10 17:23:14;;;;;;;;;;;;;;;23.76;30.85;100299.69;20756624;27;98591;-78
2022/04/10 17:33:15;;;;;;;;;;;;;;;23.78;33.46;100323.38;20741390;27;101182;-76
2022/04/10 17:43:15;;;;;;;;;;;;;;;23.77;33.12;100330.44;20778100;27;97010;-77
2022/04/10 17:53:17;;;;;;;;;;;;;;;23.77;34.11;100338.38;20756719;27;98461;-78
2022/04/10 18:03:17;;;;;;;;;;;;;;;23.78;34.78;100363.03;20766842;27;99507;-77
2022/04/10 18:13:18;;;;;;;;;;;;;;;23.77;34.65;100382.50;20754482;27;97802;-77
2022/04/10 18:23:19;;;;;;;;;;;;;;;23.78;35.93;100397.41;20771143;27;97312;-77
2022/04/10 18:33:19;;;;;;;;;;;;;;;23.81;35.13;100400.59;20755331;27;101303;-78
2022/04/10 18:43:19;;;;;;;;;;;;;;;23.81;36.17;100416.47;20747108;27;101595;-76
2022/04/10 18:53:20;;;;;;;;;;;;;;;23.63;36.61;100429.50;20750062;27;97723;-77
2022/04/10 19:03:21;;;;;;;;;;;;;;;23.55;37.06;100445.19;20755332;27;97274;-77
2022/04/10 19:13:25;;;;;;;;;;;;;;;23.44;37.83;100451.38;20770154;27;97291;-78
2022/04/10 19:23:26;;;;;;;;;;;;;;;23.34;38.38;100458.44;20774485;27;97001;-78
2022/04/10 19:33:26;;;;;;;;;;;;;;;23.23;38.45;100462.00;20760402;27;97391;-77
2022/04/10 19:43:27;;;;;;;;;;;;;;;23.17;38.50;100479.19;20772691;27;97504;-77
2022/04/10 19:53:37;;;;;;;;;;;;;;;23.10;38.74;100479.81;20774349;27;97235;-77
2022/04/10 20:03:38;;;;;;;;;;;;;;;23.04;38.86;100489.09;20768585;27;102356;-77
2022/04/10 20:13:38;;;;;;;;;;;;;;;22.99;38.80;100499.22;20757398;27;99351;-77
2022/04/10 20:23:39;;;;;;;;;;;;;;;22.97;38.73;100507.25;20752909;27;98003;-77
2022/04/10 20:33:39;;;;;;;;;;;;;;;22.91;38.97;100509.56;20756192;27;100546;-78
2022/04/10 20:43:40;;;;;;;;;;;;;;;22.85;38.92;100524.94;20754987;27;97264;-78
2022/04/10 20:53:43;;;;;;;;;;;;;;;22.80;39.15;100535.06;20749827;27;99579;-78
2022/04/10 21:03:44;;;;;;;;;;;;;;;22.75;39.03;100544.31;20742164;27;98335;-75
2022/04/10 21:13:45;;;;;;;;;;;;;;;22.74;39.27;100558.47;20745481;27;97528;-77
2022/04/10 21:23:45;;;;;;;;;;;;;;;22.68;39.25;100576.47;20751198;27;97008;-76
2022/04/10 21:33:46;;;;;;;;;;;;;;;22.66;39.54;100573.13;20751295;27;97466;-77
2022/04/10 21:43:46;;;;;;;;;;;;;;;22.63;39.32;100580.44;20771142;27;99244;-76
2022/04/10 21:53:47;;;;;;;;;;;;;;;22.60;39.81;100583.34;20753398;27;97061;-76
2022/04/10 22:03:47;;;;;;;;;;;;;;;22.58;39.61;100580.81;20758627;27;97180;-76
2022/04/10 22:13:48;;;;;;;;;;;;;;;22.54;39.89;100587.31;20746257;27;99979;-76
2022/04/10 22:23:49;;;;;;;;;;;;;;;22.52;39.91;100605.06;20744565;27;98610;-77
2022/04/10 22:33:49;;;;;;;;;;;;;;;22.49;39.73;100611.41;20750922;27;98247;-77
2022/04/10 22:43:51;;;;;;;;;;;;;;;22.47;39.99;100615.16;20740111;27;97036;-77
2022/04/10 22:53:52;;;;;;;;;;;;;;;22.44;39.87;100624.16;20759314;27;96893;-77
2022/04/10 23:03:52;;;;;;;;;;;;;;;22.44;40.16;100620.69;20749175;27;96974;-77
2022/04/10 23:13:52;;;;;;;;;;;;;;;22.38;40.27;100617.53;20751115;27;98073;-77
2022/04/10 23:23:53;;;;;;;;;;;;;;;22.36;39.91;100611.53;20758600;27;97057;-77
2022/04/10 23:33:53;;;;;;;;;;;;;;;22.33;39.95;100624.13;20756975;27;97490;-77
2022/04/10 23:43:54;;;;;;;;;;;;;;;22.31;39.96;100620.78;20745785;27;98314;-77
2022/04/10 23:53:55;;;;;;;;;;;;;;;22.29;39.77;100615.63;20738009;27;97438;-78
